sensor_id;sensor_type;location;lat;lon;timestamp;P1;durP1;ratioP1;P2;durP2;ratioP2
83096;SDS011;72968;49.460;11.004;2024-03-23T00:54:20;9.60;;;4.80;;
83096;SDS011;72968;49.460;11.004;2024-03-23T00:56:50;7.70;;;5.00;;
83096;SDS011;72968;49.460;11.004;2024-03-23T00:59:20;9.00;;;5.30;;
83096;SDS011;72968;49.460;11.004;2024-03-23T01:01:52;9.00;;;5.72;;
83096;SDS011;72968;49.460;11.004;2024-03-23T01:04:23;9.50;;;5.20;;
83096;SDS011;72968;49.460;11.004;2024-03-23T01:06:53;11.03;;;5.67;;
83096;SDS011;72968;49.460;11.004;2024-03-23T01:09:23;9.30;;;5.23;;
83096;SDS011;72968;49.460;11.004;2024-03-23T01:11:53;9.27;;;4.90;;
83096;SDS011;72968;49.460;11.004;2024-03-23T01:14:24;8.13;;;5.25;;
83096;SDS011;72968;49.460;11.004;2024-03-23T01:16:54;10.13;;;5.67;;
83096;SDS011;72968;49.460;11.004;2024-03-23T01:19:24;9.80;;;5.87;;
83096;SDS011;72968;49.460;11.004;2024-03-23T01:21:54;11.73;;;5.90;;
83096;SDS011;72968;49.460;11.004;2024-03-23T01:24:25;7.90;;;5.13;;
83096;SDS011;72968;49.460;11.004;2024-03-23T01:26:55;11.37;;;5.67;;
83096;SDS011;72968;49.460;11.004;2024-03-23T01:29:25;9.53;;;5.33;;
83096;SDS011;72968;49.460;11.004;2024-03-23T01:31:55;9.83;;;5.10;;
83096;SDS011;72968;49.460;11.004;2024-03-23T01:34:26;8.65;;;5.78;;
83096;SDS011;72968;49.460;11.004;2024-03-23T01:36:57;9.20;;;4.90;;
83096;SDS011;72968;49.460;11.004;2024-03-23T01:39:28;10.50;;;5.10;;
83096;SDS011;72968;49.460;11.004;2024-03-23T01:41:58;8.80;;;5.10;;
83096;SDS011;72968;49.460;11.004;2024-03-23T01:44:29;8.50;;;5.83;;
83096;SDS011;72968;49.460;11.004;2024-03-23T01:46:59;7.70;;;4.93;;
83096;SDS011;72968;49.460;11.004;2024-03-23T01:49:29;9.67;;;5.93;;
83096;SDS011;72968;49.460;11.004;2024-03-23T01:51:59;14.67;;;5.17;;
83096;SDS011;72968;49.460;11.004;2024-03-23T01:54:30;8.80;;;5.43;;
83096;SDS011;72968;49.460;11.004;2024-03-23T01:57:00;9.40;;;4.97;;
83096;SDS011;72968;49.460;11.004;2024-03-23T01:59:30;9.45;;;4.50;;
83096;SDS011;72968;49.460;11.004;2024-03-23T02:02:01;10.13;;;5.50;;
83096;SDS011;72968;49.460;11.004;2024-03-23T02:04:31;8.30;;;5.20;;
83096;SDS011;72968;49.460;11.004;2024-03-23T02:07:01;11.27;;;5.03;;
83096;SDS011;72968;49.460;11.004;2024-03-23T02:09:32;11.63;;;5.15;;
83096;SDS011;72968;49.460;11.004;2024-03-23T02:12:03;10.50;;;4.97;;
83096;SDS011;72968;49.460;11.004;2024-03-23T02:14:33;9.75;;;4.78;;
83096;SDS011;72968;49.460;11.004;2024-03-23T02:17:03;9.23;;;5.13;;
83096;SDS011;72968;49.460;11.004;2024-03-23T02:19:33;7.60;;;4.80;;
83096;SDS011;72968;49.460;11.004;2024-03-23T02:22:04;7.37;;;5.20;;
83096;SDS011;72968;49.460;11.004;2024-03-23T02:24:34;7.75;;;5.03;;
83096;SDS011;72968;49.460;11.004;2024-03-23T02:27:05;7.80;;;4.15;;
83096;SDS011;72968;49.460;11.004;2024-03-23T02:29:35;9.70;;;5.17;;
83096;SDS011;72968;49.460;11.004;2024-03-23T02:32:05;9.37;;;5.30;;
83096;SDS011;72968;49.460;11.004;2024-03-23T02:34:36;8.90;;;4.43;;
83096;SDS011;72968;49.460;11.004;2024-03-23T02:37:10;9.20;;;5.00;;
83096;SDS011;72968;49.460;11.004;2024-03-23T02:39:40;8.52;;;5.03;;
83096;SDS011;72968;49.460;11.004;2024-03-23T02:42:10;8.77;;;4.33;;
83096;SDS011;72968;49.460;11.004;2024-03-23T02:44:40;8.27;;;4.13;;
83096;SDS011;72968;49.460;11.004;2024-03-23T02:47:11;7.93;;;5.03;;
83096;SDS011;72968;49.460;11.004;2024-03-23T02:49:41;7.77;;;4.80;;
83096;SDS011;72968;49.460;11.004;2024-03-23T02:52:11;8.17;;;5.20;;
83096;SDS011;72968;49.460;11.004;2024-03-23T02:54:41;8.47;;;4.87;;
83096;SDS011;72968;49.460;11.004;2024-03-23T02:57:14;9.27;;;4.88;;
83096;SDS011;72968;49.460;11.004;2024-03-23T02:59:45;7.00;;;4.82;;
83096;SDS011;72968;49.460;11.004;2024-03-23T03:02:15;8.03;;;4.70;;
83096;SDS011;72968;49.460;11.004;2024-03-23T03:04:46;8.05;;;4.35;;
83096;SDS011;72968;49.460;11.004;2024-03-23T03:07:16;9.33;;;4.80;;
83096;SDS011;72968;49.460;11.004;2024-03-23T03:09:46;8.30;;;4.53;;
83096;SDS011;72968;49.460;11.004;2024-03-23T03:12:16;8.30;;;4.83;;
83096;SDS011;72968;49.460;11.004;2024-03-23T03:14:47;9.40;;;5.03;;
83096;SDS011;72968;49.460;11.004;2024-03-23T03:17:18;10.48;;;4.93;;
83096;SDS011;72968;49.460;11.004;2024-03-23T03:19:49;9.45;;;4.50;;
83096;SDS011;72968;49.460;11.004;2024-03-23T03:22:19;8.90;;;4.80;;
83096;SDS011;72968;49.460;11.004;2024-03-23T03:24:49;8.90;;;5.32;;
83096;SDS011;72968;49.460;11.004;2024-03-23T03:27:20;7.53;;;5.27;;
83096;SDS011;72968;49.460;11.004;2024-03-23T03:29:50;7.82;;;4.75;;
83096;SDS011;72968;49.460;11.004;2024-03-23T03:32:20;9.10;;;5.13;;
83096;SDS011;72968;49.460;11.004;2024-03-23T03:34:50;8.27;;;4.90;;
83096;SDS011;72968;49.460;11.004;2024-03-23T03:37:20;8.87;;;4.57;;
83096;SDS011;72968;49.460;11.004;2024-03-23T03:39:51;7.77;;;4.80;;
83096;SDS011;72968;49.460;11.004;2024-03-23T03:42:21;8.83;;;4.77;;
83096;SDS011;72968;49.460;11.004;2024-03-23T03:44:51;8.37;;;4.37;;
83096;SDS011;72968;49.460;11.004;2024-03-23T03:47:23;9.02;;;5.22;;
83096;SDS011;72968;49.460;11.004;2024-03-23T03:49:53;11.27;;;4.60;;
83096;SDS011;72968;49.460;11.004;2024-03-23T03:52:24;7.27;;;4.57;;
83096;SDS011;72968;49.460;11.004;2024-03-23T03:55:00;8.77;;;4.53;;
83096;SDS011;72968;49.460;11.004;2024-03-23T03:57:31;8.70;;;4.95;;
83096;SDS011;72968;49.460;11.004;2024-03-23T04:00:01;6.77;;;4.53;;
83096;SDS011;72968;49.460;11.004;2024-03-23T04:02:31;7.23;;;4.57;;
83096;SDS011;72968;49.460;11.004;2024-03-23T04:05:01;7.70;;;4.50;;
83096;SDS011;72968;49.460;11.004;2024-03-23T04:07:33;9.55;;;5.07;;
83096;SDS011;72968;49.460;11.004;2024-03-23T04:10:03;10.07;;;5.50;;
83096;SDS011;72968;49.460;11.004;2024-03-23T04:12:37;11.85;;;4.60;;
83096;SDS011;72968;49.460;11.004;2024-03-23T04:15:07;8.73;;;5.27;;
83096;SDS011;72968;49.460;11.004;2024-03-23T04:17:38;9.98;;;5.43;;
83096;SDS011;72968;49.460;11.004;2024-03-23T04:20:08;9.52;;;5.05;;
83096;SDS011;72968;49.460;11.004;2024-03-23T04:22:41;8.43;;;4.80;;
83096;SDS011;72968;49.460;11.004;2024-03-23T04:25:11;8.17;;;4.53;;
83096;SDS011;72968;49.460;11.004;2024-03-23T04:27:41;10.48;;;4.97;;
83096;SDS011;72968;49.460;11.004;2024-03-23T04:30:12;7.25;;;4.68;;
83096;SDS011;72968;49.460;11.004;2024-03-23T04:32:42;8.03;;;4.73;;
83096;SDS011;72968;49.460;11.004;2024-03-23T04:35:12;7.28;;;4.57;;
83096;SDS011;72968;49.460;11.004;2024-03-23T04:37:43;10.70;;;5.17;;
83096;SDS011;72968;49.460;11.004;2024-03-23T04:40:13;9.50;;;5.00;;
83096;SDS011;72968;49.460;11.004;2024-03-23T04:42:43;6.00;;;4.33;;
83096;SDS011;72968;49.460;11.004;2024-03-23T04:45:14;9.98;;;5.10;;
83096;SDS011;72968;49.460;11.004;2024-03-23T04:47:44;8.87;;;5.10;;
83096;SDS011;72968;49.460;11.004;2024-03-23T04:50:14;9.17;;;5.13;;
83096;SDS011;72968;49.460;11.004;2024-03-23T04:52:44;8.03;;;4.87;;
83096;SDS011;72968;49.460;11.004;2024-03-23T04:55:14;9.67;;;4.83;;
83096;SDS011;72968;49.460;11.004;2024-03-23T04:57:45;8.90;;;4.90;;
83096;SDS011;72968;49.460;11.004;2024-03-23T05:00:15;10.20;;;4.90;;
83096;SDS011;72968;49.460;11.004;2024-03-23T05:02:47;9.68;;;4.97;;
83096;SDS011;72968;49.460;11.004;2024-03-23T05:05:17;8.80;;;4.97;;
83096;SDS011;72968;49.460;11.004;2024-03-23T05:07:48;7.90;;;4.75;;
83096;SDS011;72968;49.460;11.004;2024-03-23T05:10:18;8.00;;;4.63;;
83096;SDS011;72968;49.460;11.004;2024-03-23T05:12:50;10.23;;;4.33;;
83096;SDS011;72968;49.460;11.004;2024-03-23T05:15:20;11.35;;;5.65;;
83096;SDS011;72968;49.460;11.004;2024-03-23T05:17:52;6.33;;;4.10;;
83096;SDS011;72968;49.460;11.004;2024-03-23T05:20:24;7.13;;;4.53;;
83096;SDS011;72968;49.460;11.004;2024-03-23T05:22:54;6.90;;;4.53;;
83096;SDS011;72968;49.460;11.004;2024-03-23T05:25:25;8.20;;;4.28;;
83096;SDS011;72968;49.460;11.004;2024-03-23T05:27:55;9.50;;;4.73;;
83096;SDS011;72968;49.460;11.004;2024-03-23T05:30:25;10.13;;;4.77;;
83096;SDS011;72968;49.460;11.004;2024-03-23T05:32:55;8.00;;;4.10;;
83096;SDS011;72968;49.460;11.004;2024-03-23T05:35:26;5.43;;;3.53;;
83096;SDS011;72968;49.460;11.004;2024-03-23T05:37:56;7.17;;;2.90;;
83096;SDS011;72968;49.460;11.004;2024-03-23T05:40:26;3.97;;;2.97;;
83096;SDS011;72968;49.460;11.004;2024-03-23T05:42:56;5.68;;;3.35;;
83096;SDS011;72968;49.460;11.004;2024-03-23T05:45:27;6.57;;;3.30;;
83096;SDS011;72968;49.460;11.004;2024-03-23T05:47:57;5.63;;;3.13;;
83096;SDS011;72968;49.460;11.004;2024-03-23T05:50:27;6.00;;;2.90;;
83096;SDS011;72968;49.460;11.004;2024-03-23T05:52:57;5.80;;;3.20;;
83096;SDS011;72968;49.460;11.004;2024-03-23T05:55:27;5.30;;;2.90;;
83096;SDS011;72968;49.460;11.004;2024-03-23T05:57:58;4.47;;;2.80;;
83096;SDS011;72968;49.460;11.004;2024-03-23T06:00:30;6.32;;;3.13;;
83096;SDS011;72968;49.460;11.004;2024-03-23T06:03:00;5.57;;;3.07;;
83096;SDS011;72968;49.460;11.004;2024-03-23T06:05:30;4.83;;;2.63;;
83096;SDS011;72968;49.460;11.004;2024-03-23T06:08:00;5.77;;;3.40;;
83096;SDS011;72968;49.460;11.004;2024-03-23T06:10:30;4.33;;;3.00;;
83096;SDS011;72968;49.460;11.004;2024-03-23T06:13:01;6.82;;;2.95;;
83096;SDS011;72968;49.460;11.004;2024-03-23T06:15:31;6.47;;;3.30;;
83096;SDS011;72968;49.460;11.004;2024-03-23T06:18:02;6.33;;;3.37;;
83096;SDS011;72968;49.460;11.004;2024-03-23T06:20:33;6.55;;;3.30;;
83096;SDS011;72968;49.460;11.004;2024-03-23T06:23:03;7.30;;;4.10;;
83096;SDS011;72968;49.460;11.004;2024-03-23T06:25:34;5.40;;;3.53;;
83096;SDS011;72968;49.460;11.004;2024-03-23T06:28:04;7.07;;;3.40;;
83096;SDS011;72968;49.460;11.004;2024-03-23T06:30:34;13.77;;;4.32;;
83096;SDS011;72968;49.460;11.004;2024-03-23T06:33:04;7.50;;;4.13;;
83096;SDS011;72968;49.460;11.004;2024-03-23T06:35:35;6.95;;;4.00;;
83096;SDS011;72968;49.460;11.004;2024-03-23T06:38:05;7.37;;;4.40;;
83096;SDS011;72968;49.460;11.004;2024-03-23T06:40:36;8.27;;;4.97;;
83096;SDS011;72968;49.460;11.004;2024-03-23T06:43:06;9.07;;;4.57;;
83096;SDS011;72968;49.460;11.004;2024-03-23T06:45:36;11.40;;;5.30;;
83096;SDS011;72968;49.460;11.004;2024-03-23T06:48:07;10.05;;;5.60;;
83096;SDS011;72968;49.460;11.004;2024-03-23T06:50:40;9.35;;;4.53;;
83096;SDS011;72968;49.460;11.004;2024-03-23T06:53:10;12.43;;;5.50;;
83096;SDS011;72968;49.460;11.004;2024-03-23T06:55:40;9.47;;;5.97;;
83096;SDS011;72968;49.460;11.004;2024-03-23T06:58:10;9.63;;;5.47;;
83096;SDS011;72968;49.460;11.004;2024-03-23T07:00:40;11.00;;;6.30;;
83096;SDS011;72968;49.460;11.004;2024-03-23T07:03:10;8.80;;;5.23;;
83096;SDS011;72968;49.460;11.004;2024-03-23T07:05:41;6.97;;;3.87;;
83096;SDS011;72968;49.460;11.004;2024-03-23T07:08:12;10.05;;;4.90;;
83096;SDS011;72968;49.460;11.004;2024-03-23T07:10:42;8.93;;;4.73;;
83096;SDS011;72968;49.460;11.004;2024-03-23T07:13:12;10.87;;;5.57;;
83096;SDS011;72968;49.460;11.004;2024-03-23T07:15:43;10.20;;;4.07;;
83096;SDS011;72968;49.460;11.004;2024-03-23T07:18:13;8.10;;;3.70;;
83096;SDS011;72968;49.460;11.004;2024-03-23T07:20:51;5.90;;;2.77;;
83096;SDS011;72968;49.460;11.004;2024-03-23T07:23:21;5.75;;;3.25;;
83096;SDS011;72968;49.460;11.004;2024-03-23T07:25:58;7.25;;;3.70;;
83096;SDS011;72968;49.460;11.004;2024-03-23T07:31:03;5.75;;;3.25;;
83096;SDS011;72968;49.460;11.004;2024-03-23T07:33:34;8.45;;;4.20;;
83096;SDS011;72968;49.460;11.004;2024-03-23T07:36:04;7.75;;;3.90;;
83096;SDS011;72968;49.460;11.004;2024-03-23T07:38:35;6.90;;;3.92;;
83096;SDS011;72968;49.460;11.004;2024-03-23T07:41:06;7.10;;;3.30;;
83096;SDS011;72968;49.460;11.004;2024-03-23T07:43:37;8.07;;;4.50;;
83096;SDS011;72968;49.460;11.004;2024-03-23T07:46:07;7.88;;;4.32;;
83096;SDS011;72968;49.460;11.004;2024-03-23T07:48:38;9.67;;;4.40;;
83096;SDS011;72968;49.460;11.004;2024-03-23T07:51:09;9.75;;;4.07;;
83096;SDS011;72968;49.460;11.004;2024-03-23T07:53:43;8.02;;;4.30;;
83096;SDS011;72968;49.460;11.004;2024-03-23T07:56:13;6.57;;;3.38;;
83096;SDS011;72968;49.460;11.004;2024-03-23T07:58:45;8.30;;;3.53;;
83096;SDS011;72968;49.460;11.004;2024-03-23T08:01:16;7.82;;;3.78;;
83096;SDS011;72968;49.460;11.004;2024-03-23T08:03:46;8.38;;;3.78;;
83096;SDS011;72968;49.460;11.004;2024-03-23T08:06:17;8.23;;;3.97;;
83096;SDS011;72968;49.460;11.004;2024-03-23T08:08:50;8.25;;;4.28;;
83096;SDS011;72968;49.460;11.004;2024-03-23T08:11:23;8.48;;;4.63;;
83096;SDS011;72968;49.460;11.004;2024-03-23T08:13:53;6.77;;;3.60;;
83096;SDS011;72968;49.460;11.004;2024-03-23T08:16:24;6.80;;;4.13;;
83096;SDS011;72968;49.460;11.004;2024-03-23T08:18:54;8.23;;;3.70;;
83096;SDS011;72968;49.460;11.004;2024-03-23T08:21:27;4.30;;;2.78;;
83096;SDS011;72968;49.460;11.004;2024-03-23T08:23:57;6.60;;;3.27;;
83096;SDS011;72968;49.460;11.004;2024-03-23T08:26:28;4.87;;;2.10;;
83096;SDS011;72968;49.460;11.004;2024-03-23T08:28:59;3.70;;;1.75;;
83096;SDS011;72968;49.460;11.004;2024-03-23T08:31:29;3.23;;;1.57;;
83096;SDS011;72968;49.460;11.004;2024-03-23T08:33:59;2.90;;;1.60;;
83096;SDS011;72968;49.460;11.004;2024-03-23T08:36:30;5.63;;;1.77;;
83096;SDS011;72968;49.460;11.004;2024-03-23T08:39:00;2.83;;;1.50;;
83096;SDS011;72968;49.460;11.004;2024-03-23T08:41:30;1.50;;;0.93;;
83096;SDS011;72968;49.460;11.004;2024-03-23T08:44:01;2.83;;;1.37;;
83096;SDS011;72968;49.460;11.004;2024-03-23T08:46:31;1.37;;;0.93;;
83096;SDS011;72968;49.460;11.004;2024-03-23T08:49:01;3.20;;;1.70;;
83096;SDS011;72968;49.460;11.004;2024-03-23T08:51:31;1.90;;;0.90;;
83096;SDS011;72968;49.460;11.004;2024-03-23T08:54:01;5.13;;;2.10;;
83096;SDS011;72968;49.460;11.004;2024-03-23T08:56:32;2.97;;;1.50;;
83096;SDS011;72968;49.460;11.004;2024-03-23T08:59:02;2.27;;;1.53;;
83096;SDS011;72968;49.460;11.004;2024-03-23T09:01:32;2.00;;;1.13;;
83096;SDS011;72968;49.460;11.004;2024-03-23T09:04:02;3.00;;;1.20;;
83096;SDS011;72968;49.460;11.004;2024-03-23T09:06:32;1.70;;;1.00;;
83096;SDS011;72968;49.460;11.004;2024-03-23T09:09:03;1.63;;;1.10;;
83096;SDS011;72968;49.460;11.004;2024-03-23T09:11:33;1.53;;;0.83;;
83096;SDS011;72968;49.460;11.004;2024-03-23T09:14:03;1.60;;;0.90;;
83096;SDS011;72968;49.460;11.004;2024-03-23T09:16:34;1.40;;;0.80;;
83096;SDS011;72968;49.460;11.004;2024-03-23T09:19:04;1.23;;;1.02;;
83096;SDS011;72968;49.460;11.004;2024-03-23T09:21:36;1.15;;;0.77;;
83096;SDS011;72968;49.460;11.004;2024-03-23T09:24:06;1.67;;;0.90;;
83096;SDS011;72968;49.460;11.004;2024-03-23T09:26:36;0.73;;;0.50;;
83096;SDS011;72968;49.460;11.004;2024-03-23T09:29:07;1.23;;;0.80;;
83096;SDS011;72968;49.460;11.004;2024-03-23T09:31:37;1.10;;;0.47;;
83096;SDS011;72968;49.460;11.004;2024-03-23T09:34:08;2.53;;;0.55;;
83096;SDS011;72968;49.460;11.004;2024-03-23T09:36:39;0.20;;;0.20;;
83096;SDS011;72968;49.460;11.004;2024-03-23T09:39:10;0.40;;;0.20;;
83096;SDS011;72968;49.460;11.004;2024-03-23T09:41:40;0.57;;;0.30;;
83096;SDS011;72968;49.460;11.004;2024-03-23T09:44:12;0.32;;;0.30;;
83096;SDS011;72968;49.460;11.004;2024-03-23T09:46:43;1.48;;;0.52;;
83096;SDS011;72968;49.460;11.004;2024-03-23T09:49:13;0.70;;;0.30;;
83096;SDS011;72968;49.460;11.004;2024-03-23T09:51:43;0.27;;;0.20;;
83096;SDS011;72968;49.460;11.004;2024-03-23T09:54:13;0.75;;;0.50;;
83096;SDS011;72968;49.460;11.004;2024-03-23T09:56:44;0.70;;;0.40;;
83096;SDS011;72968;49.460;11.004;2024-03-23T09:59:14;0.30;;;0.30;;
83096;SDS011;72968;49.460;11.004;2024-03-23T10:01:44;0.30;;;0.30;;
83096;SDS011;72968;49.460;11.004;2024-03-23T10:07:10;0.65;;;0.40;;
83096;SDS011;72968;49.460;11.004;2024-03-23T10:09:42;0.68;;;0.40;;
83096;SDS011;72968;49.460;11.004;2024-03-23T10:12:14;0.30;;;0.30;;
83096;SDS011;72968;49.460;11.004;2024-03-23T10:14:45;0.35;;;0.30;;
83096;SDS011;72968;49.460;11.004;2024-03-23T10:19:48;2.42;;;0.60;;
83096;SDS011;72968;49.460;11.004;2024-03-23T10:22:24;0.60;;;0.40;;
83096;SDS011;72968;49.460;11.004;2024-03-23T10:25:07;1.50;;;0.88;;
83096;SDS011;72968;49.460;11.004;2024-03-23T10:27:44;1.63;;;0.73;;
83096;SDS011;72968;49.460;11.004;2024-03-23T10:30:25;3.35;;;0.80;;
83096;SDS011;72968;49.460;11.004;2024-03-23T10:33:10;1.88;;;0.65;;
83096;SDS011;72968;49.460;11.004;2024-03-23T10:35:40;1.88;;;0.50;;
83096;SDS011;72968;49.460;11.004;2024-03-23T10:38:11;1.60;;;0.70;;
83096;SDS011;72968;49.460;11.004;2024-03-23T10:40:41;1.90;;;0.90;;
83096;SDS011;72968;49.460;11.004;2024-03-23T10:43:16;1.63;;;1.00;;
83096;SDS011;72968;49.460;11.004;2024-03-23T10:45:51;2.58;;;1.00;;
83096;SDS011;72968;49.460;11.004;2024-03-23T10:48:21;1.90;;;0.90;;
83096;SDS011;72968;49.460;11.004;2024-03-23T10:50:52;1.30;;;0.70;;
83096;SDS011;72968;49.460;11.004;2024-03-23T10:53:24;2.42;;;1.10;;
83096;SDS011;72968;49.460;11.004;2024-03-23T10:55:55;2.55;;;0.98;;
83096;SDS011;72968;49.460;11.004;2024-03-23T10:58:30;2.88;;;0.77;;
83096;SDS011;72968;49.460;11.004;2024-03-23T11:01:02;2.65;;;0.95;;
83096;SDS011;72968;49.460;11.004;2024-03-23T11:03:33;1.60;;;0.88;;
83096;SDS011;72968;49.460;11.004;2024-03-23T11:06:04;2.88;;;0.80;;
83096;SDS011;72968;49.460;11.004;2024-03-23T11:08:41;1.40;;;0.80;;
83096;SDS011;72968;49.460;11.004;2024-03-23T11:11:20;2.60;;;1.00;;
83096;SDS011;72968;49.460;11.004;2024-03-23T11:13:51;1.67;;;0.93;;
83096;SDS011;72968;49.460;11.004;2024-03-23T11:19:26;2.13;;;1.20;;
83096;SDS011;72968;49.460;11.004;2024-03-23T11:21:52;3.35;;;1.00;;
83096;SDS011;72968;49.460;11.004;2024-03-23T11:24:23;2.70;;;1.20;;
83096;SDS011;72968;49.460;11.004;2024-03-23T11:26:53;3.40;;;1.17;;
83096;SDS011;72968;49.460;11.004;2024-03-23T11:29:23;2.30;;;1.03;;
83096;SDS011;72968;49.460;11.004;2024-03-23T11:31:54;2.17;;;1.23;;
83096;SDS011;72968;49.460;11.004;2024-03-23T11:34:24;3.47;;;1.57;;
83096;SDS011;72968;49.460;11.004;2024-03-23T11:37:03;3.47;;;1.37;;
83096;SDS011;72968;49.460;11.004;2024-03-23T11:39:34;2.50;;;1.42;;
83096;SDS011;72968;49.460;11.004;2024-03-23T11:42:04;4.20;;;1.30;;
83096;SDS011;72968;49.460;11.004;2024-03-23T11:44:34;3.70;;;1.33;;
83096;SDS011;72968;49.460;11.004;2024-03-23T11:47:08;4.83;;;2.00;;
83096;SDS011;72968;49.460;11.004;2024-03-23T11:49:39;2.50;;;1.15;;
83096;SDS011;72968;49.460;11.004;2024-03-23T11:52:10;3.17;;;1.52;;
83096;SDS011;72968;49.460;11.004;2024-03-23T11:54:41;2.90;;;1.03;;
83096;SDS011;72968;49.460;11.004;2024-03-23T11:57:11;2.37;;;1.23;;
83096;SDS011;72968;49.460;11.004;2024-03-23T11:59:41;2.15;;;1.00;;
83096;SDS011;72968;49.460;11.004;2024-03-23T12:02:12;2.42;;;1.13;;
83096;SDS011;72968;49.460;11.004;2024-03-23T12:04:46;4.30;;;1.35;;
83096;SDS011;72968;49.460;11.004;2024-03-23T12:07:19;3.57;;;1.10;;
83096;SDS011;72968;49.460;11.004;2024-03-23T12:10:02;2.90;;;1.30;;
83096;SDS011;72968;49.460;11.004;2024-03-23T12:12:34;2.30;;;1.13;;
83096;SDS011;72968;49.460;11.004;2024-03-23T12:15:05;2.95;;;1.17;;
83096;SDS011;72968;49.460;11.004;2024-03-23T12:17:36;2.70;;;1.10;;
83096;SDS011;72968;49.460;11.004;2024-03-23T12:20:06;3.30;;;1.40;;
83096;SDS011;72968;49.460;11.004;2024-03-23T12:22:37;3.15;;;1.52;;
83096;SDS011;72968;49.460;11.004;2024-03-23T12:25:07;4.10;;;1.20;;
83096;SDS011;72968;49.460;11.004;2024-03-23T12:27:37;3.30;;;1.20;;
83096;SDS011;72968;49.460;11.004;2024-03-23T12:30:08;5.40;;;1.50;;
83096;SDS011;72968;49.460;11.004;2024-03-23T12:32:38;3.50;;;1.55;;
83096;SDS011;72968;49.460;11.004;2024-03-23T12:35:08;2.83;;;1.40;;
83096;SDS011;72968;49.460;11.004;2024-03-23T12:37:39;4.65;;;2.05;;
83096;SDS011;72968;49.460;11.004;2024-03-23T12:40:10;4.27;;;1.57;;
83096;SDS011;72968;49.460;11.004;2024-03-23T12:42:40;2.42;;;1.23;;
83096;SDS011;72968;49.460;11.004;2024-03-23T12:45:10;2.97;;;1.50;;
83096;SDS011;72968;49.460;11.004;2024-03-23T12:47:40;4.37;;;1.70;;
83096;SDS011;72968;49.460;11.004;2024-03-23T12:50:10;3.13;;;1.73;;
83096;SDS011;72968;49.460;11.004;2024-03-23T12:52:41;4.40;;;2.08;;
83096;SDS011;72968;49.460;11.004;2024-03-23T12:55:12;2.88;;;1.60;;
83096;SDS011;72968;49.460;11.004;2024-03-23T12:57:42;4.40;;;1.60;;
83096;SDS011;72968;49.460;11.004;2024-03-23T13:00:13;4.13;;;1.50;;
83096;SDS011;72968;49.460;11.004;2024-03-23T13:02:44;5.13;;;1.50;;
83096;SDS011;72968;49.460;11.004;2024-03-23T13:05:14;7.22;;;1.80;;
83096;SDS011;72968;49.460;11.004;2024-03-23T13:07:44;4.70;;;1.60;;
83096;SDS011;72968;49.460;11.004;2024-03-23T13:10:14;3.97;;;1.70;;
83096;SDS011;72968;49.460;11.004;2024-03-23T13:12:45;2.90;;;1.55;;
83096;SDS011;72968;49.460;11.004;2024-03-23T13:15:16;3.30;;;1.70;;
83096;SDS011;72968;49.460;11.004;2024-03-23T13:17:47;5.72;;;1.63;;
83096;SDS011;72968;49.460;11.004;2024-03-23T13:20:17;3.47;;;1.60;;
83096;SDS011;72968;49.460;11.004;2024-03-23T13:22:48;2.90;;;1.40;;
83096;SDS011;72968;49.460;11.004;2024-03-23T13:25:27;4.13;;;1.70;;
83096;SDS011;72968;49.460;11.004;2024-03-23T13:27:57;4.40;;;1.67;;
83096;SDS011;72968;49.460;11.004;2024-03-23T13:30:30;3.53;;;1.73;;
83096;SDS011;72968;49.460;11.004;2024-03-23T13:33:03;4.20;;;1.45;;
83096;SDS011;72968;49.460;11.004;2024-03-23T13:35:33;5.27;;;1.63;;
83096;SDS011;72968;49.460;11.004;2024-03-23T13:38:04;5.67;;;1.33;;
83096;SDS011;72968;49.460;11.004;2024-03-23T13:40:34;2.93;;;1.40;;
83096;SDS011;72968;49.460;11.004;2024-03-23T13:43:04;3.70;;;1.70;;
83096;SDS011;72968;49.460;11.004;2024-03-23T13:45:34;2.63;;;1.30;;
83096;SDS011;72968;49.460;11.004;2024-03-23T13:48:06;3.75;;;1.83;;
83096;SDS011;72968;49.460;11.004;2024-03-23T13:50:37;2.53;;;1.23;;
83096;SDS011;72968;49.460;11.004;2024-03-23T13:53:25;3.40;;;1.30;;
83096;SDS011;72968;49.460;11.004;2024-03-23T13:55:59;5.25;;;1.38;;
83096;SDS011;72968;49.460;11.004;2024-03-23T13:58:33;3.22;;;1.70;;
83096;SDS011;72968;49.460;11.004;2024-03-23T14:01:13;4.70;;;1.52;;
83096;SDS011;72968;49.460;11.004;2024-03-23T14:03:45;5.38;;;2.03;;
83096;SDS011;72968;49.460;11.004;2024-03-23T14:06:15;5.63;;;1.63;;
83096;SDS011;72968;49.460;11.004;2024-03-23T14:08:46;3.75;;;1.58;;
83096;SDS011;72968;49.460;11.004;2024-03-23T14:11:22;2.83;;;1.25;;
83096;SDS011;72968;49.460;11.004;2024-03-23T14:13:52;5.88;;;1.60;;
83096;SDS011;72968;49.460;11.004;2024-03-23T14:16:23;2.75;;;1.15;;
83096;SDS011;72968;49.460;11.004;2024-03-23T14:18:53;4.07;;;1.47;;
83096;SDS011;72968;49.460;11.004;2024-03-23T14:21:23;5.07;;;1.40;;
83096;SDS011;72968;49.460;11.004;2024-03-23T14:23:53;5.07;;;1.43;;
83096;SDS011;72968;49.460;11.004;2024-03-23T14:26:25;5.03;;;1.55;;
83096;SDS011;72968;49.460;11.004;2024-03-23T14:28:55;4.53;;;1.30;;
83096;SDS011;72968;49.460;11.004;2024-03-23T14:31:25;4.63;;;1.57;;
83096;SDS011;72968;49.460;11.004;2024-03-23T14:33:55;5.00;;;1.50;;
83096;SDS011;72968;49.460;11.004;2024-03-23T14:36:26;4.73;;;1.53;;
83096;SDS011;72968;49.460;11.004;2024-03-23T14:38:56;5.45;;;1.48;;
83096;SDS011;72968;49.460;11.004;2024-03-23T14:41:26;3.87;;;1.50;;
83096;SDS011;72968;49.460;11.004;2024-03-23T14:43:56;2.93;;;1.20;;
83096;SDS011;72968;49.460;11.004;2024-03-23T14:46:27;3.63;;;1.50;;
83096;SDS011;72968;49.460;11.004;2024-03-23T14:48:57;7.60;;;1.97;;
83096;SDS011;72968;49.460;11.004;2024-03-23T14:51:27;4.60;;;1.50;;
83096;SDS011;72968;49.460;11.004;2024-03-23T14:53:58;8.10;;;1.42;;
83096;SDS011;72968;49.460;11.004;2024-03-23T14:56:28;5.03;;;1.20;;
83096;SDS011;72968;49.460;11.004;2024-03-23T14:58:58;5.33;;;1.73;;
83096;SDS011;72968;49.460;11.004;2024-03-23T15:01:29;5.93;;;1.50;;
83096;SDS011;72968;49.460;11.004;2024-03-23T15:03:59;3.40;;;1.30;;
83096;SDS011;72968;49.460;11.004;2024-03-23T15:06:29;3.50;;;1.30;;
83096;SDS011;72968;49.460;11.004;2024-03-23T15:08:59;3.90;;;1.13;;
83096;SDS011;72968;49.460;11.004;2024-03-23T15:11:30;3.57;;;1.30;;
83096;SDS011;72968;49.460;11.004;2024-03-23T15:14:00;5.50;;;1.70;;
83096;SDS011;72968;49.460;11.004;2024-03-23T15:16:30;4.30;;;1.60;;
83096;SDS011;72968;49.460;11.004;2024-03-23T15:19:00;1.67;;;1.10;;
83096;SDS011;72968;49.460;11.004;2024-03-23T15:21:30;3.03;;;1.40;;
83096;SDS011;72968;49.460;11.004;2024-03-23T15:24:01;2.67;;;1.50;;
83096;SDS011;72968;49.460;11.004;2024-03-23T15:26:31;5.97;;;1.47;;
83096;SDS011;72968;49.460;11.004;2024-03-23T15:29:01;4.17;;;1.60;;
83096;SDS011;72968;49.460;11.004;2024-03-23T15:31:31;4.53;;;1.63;;
83096;SDS011;72968;49.460;11.004;2024-03-23T15:34:02;3.40;;;1.63;;
83096;SDS011;72968;49.460;11.004;2024-03-23T15:36:32;5.55;;;2.00;;
83096;SDS011;72968;49.460;11.004;2024-03-23T15:39:02;5.10;;;1.57;;
83096;SDS011;72968;49.460;11.004;2024-03-23T15:41:35;2.72;;;1.55;;
83096;SDS011;72968;49.460;11.004;2024-03-23T15:44:06;2.45;;;1.38;;
83096;SDS011;72968;49.460;11.004;2024-03-23T15:46:36;4.47;;;1.43;;
83096;SDS011;72968;49.460;11.004;2024-03-23T15:49:06;2.87;;;1.47;;
83096;SDS011;72968;49.460;11.004;2024-03-23T15:51:37;5.53;;;1.53;;
83096;SDS011;72968;49.460;11.004;2024-03-23T15:54:09;9.50;;;1.75;;
83096;SDS011;72968;49.460;11.004;2024-03-23T15:56:40;5.07;;;1.67;;
83096;SDS011;72968;49.460;11.004;2024-03-23T15:59:10;3.37;;;1.33;;